Time;durP1;ratioP1;P1;durP2;ratioP2;P2;SDS_P1;SDS_P2;PMS_P1;PMS_P2;Temp;Humidity;BMP_temperature;BMP_pressure;BME280_temperature;BME280_humidity;BME280_pressure;Samples;Min_cycle;Max_cycle;Signal;HPM_P1;HPM_P2
2023/09/18 00:02:05;;;;;;;13.30;9.93;;;;;;;;;;6240903;23;20764;-85
2023/09/18 00:04:31;;;;;;;11.88;9.50;;;;;;;;;;6213016;23;20026;-85
2023/09/18 00:06:57;;;;;;;12.65;9.68;;;;;;;;;;6214065;23;20350;-85
2023/09/18 00:09:23;;;;;;;14.35;9.82;;;;;;;;;;6241698;23;20023;-85
2023/09/18 00:11:49;;;;;;;12.95;10.23;;;;;;;;;;6214088;23;20016;-86
2023/09/18 00:14:15;;;;;;;15.32;10.10;;;;;;;;;;6214135;23;20027;-85
2023/09/18 00:16:41;;;;;;;16.30;10.65;;;;;;;;;;6214752;23;20012;-85
2023/09/18 00:19:07;;;;;;;15.45;10.77;;;;;;;;;;6212980;23;20020;-85
2023/09/18 00:21:34;;;;;;;13.70;9.43;;;;;;;;;;6189487;23;20027;-85
2023/09/18 00:24:00;;;;;;;12.38;9.05;;;;;;;;;;6241010;23;20087;-85
2023/09/18 00:26:26;;;;;;;12.55;9.50;;;;;;;;;;6214402;23;20016;-85
2023/09/18 00:28:52;;;;;;;11.80;8.10;;;;;;;;;;6214227;23;20135;-85
2023/09/18 00:31:19;;;;;;;10.90;8.00;;;;;;;;;;6240672;23;20441;-85
2023/09/18 00:33:45;;;;;;;11.20;8.00;;;;;;;;;;6214180;23;20016;-85
2023/09/18 00:36:12;;;;;;;10.30;8.50;;;;;;;;;;6213097;23;20012;-84
2023/09/18 00:38:38;;;;;;;10.18;8.43;;;;;;;;;;6214807;23;20342;-85
2023/09/18 00:41:04;;;;;;;10.38;8.02;;;;;;;;;;6213669;23;20098;-85
2023/09/18 00:43:30;;;;;;;11.25;8.30;;;;;;;;;;6217502;23;20020;-84
2023/09/18 00:45:56;;;;;;;8.90;7.18;;;;;;;;;;6217191;23;20016;-86
2023/09/18 00:48:22;;;;;;;9.02;7.03;;;;;;;;;;6217162;23;20710;-85
2023/09/18 00:50:48;;;;;;;8.55;6.72;;;;;;;;;;6218023;23;20031;-86
2023/09/18 00:53:18;;;;;;;9.82;7.97;;;;;;;;;;6217320;23;20031;-85
2023/09/18 00:55:44;;;;;;;8.68;7.03;;;;;;;;;;6245656;23;20073;-85
2023/09/18 00:58:13;;;;;;;8.52;7.60;;;;;;;;;;6243518;23;20017;-85
2023/09/18 01:00:40;;;;;;;10.05;7.50;;;;;;;;;;6192811;23;20061;-85
2023/09/18 01:03:06;;;;;;;9.45;7.82;;;;;;;;;;6215824;23;20016;-85
2023/09/18 01:05:33;;;;;;;9.88;8.18;;;;;;;;;;6245022;23;20016;-85
2023/09/18 01:07:59;;;;;;;9.23;7.03;;;;;;;;;;6216577;23;20022;-85
2023/09/18 01:10:27;;;;;;;10.70;8.13;;;;;;;;;;6217685;23;20012;-84
2023/09/18 01:12:56;;;;;;;11.35;7.85;;;;;;;;;;6217022;23;20385;-85
2023/09/18 01:15:23;;;;;;;10.07;7.95;;;;;;;;;;6216367;23;20087;-85
2023/09/18 01:17:49;;;;;;;11.80;8.15;;;;;;;;;;6217464;23;20465;-84
2023/09/18 01:20:15;;;;;;;11.35;8.05;;;;;;;;;;6216784;23;20098;-85
2023/09/18 01:22:41;;;;;;;11.05;8.32;;;;;;;;;;6217970;23;20361;-85
2023/09/18 01:25:07;;;;;;;13.98;9.32;;;;;;;;;;6217007;23;20023;-85
2023/09/18 01:27:33;;;;;;;12.38;8.52;;;;;;;;;;6217282;23;20012;-85
2023/09/18 01:30:00;;;;;;;12.98;8.90;;;;;;;;;;6190406;23;20078;-85
2023/09/18 01:32:28;;;;;;;13.88;9.45;;;;;;;;;;6216951;23;20042;-84
2023/09/18 01:34:55;;;;;;;12.60;9.10;;;;;;;;;;6244187;23;20023;-85
2023/09/18 01:37:23;;;;;;;14.05;10.35;;;;;;;;;;6244269;23;20016;-85
2023/09/18 01:39:50;;;;;;;11.55;9.02;;;;;;;;;;6244869;23;20044;-85
2023/09/18 01:42:16;;;;;;;12.88;10.02;;;;;;;;;;6243131;23;20433;-85
2023/09/18 01:44:43;;;;;;;11.73;9.48;;;;;;;;;;6243797;23;20348;-85
2023/09/18 01:47:09;;;;;;;13.77;10.40;;;;;;;;;;6216160;23;20331;-85
2023/09/18 01:49:36;;;;;;;12.07;9.60;;;;;;;;;;6217700;23;20024;-85
2023/09/18 01:52:03;;;;;;;16.38;10.70;;;;;;;;;;6217103;23;20016;-85
2023/09/18 01:54:30;;;;;;;11.40;9.43;;;;;;;;;;6243378;23;20056;-85
2023/09/18 01:56:56;;;;;;;13.35;8.80;;;;;;;;;;6242684;23;20337;-85
2023/09/18 01:59:23;;;;;;;13.18;9.75;;;;;;;;;;6242262;23;20377;-85
2023/09/18 02:01:49;;;;;;;12.32;9.65;;;;;;;;;;6242778;23;20070;-85
2023/09/18 02:04:15;;;;;;;13.55;9.63;;;;;;;;;;6242235;23;20079;-84
2023/09/18 02:06:41;;;;;;;14.77;10.45;;;;;;;;;;6216159;23;20055;-85
2023/09/18 02:09:08;;;;;;;13.68;9.75;;;;;;;;;;6241931;23;20008;-85
2023/09/18 02:11:37;;;;;;;12.48;10.25;;;;;;;;;;6242393;23;20430;-87
2023/09/18 02:14:04;;;;;;;13.93;9.43;;;;;;;;;;6214856;23;20140;-85
2023/09/18 02:16:30;;;;;;;13.63;9.60;;;;;;;;;;6242384;23;20031;-85
2023/09/18 02:18:56;;;;;;;12.52;9.35;;;;;;;;;;6215089;23;20012;-86
2023/09/18 02:21:23;;;;;;;13.90;10.25;;;;;;;;;;6242192;23;20008;-86
2023/09/18 02:23:53;;;;;;;14.55;9.98;;;;;;;;;;6215424;23;20532;-84
2023/09/18 02:26:19;;;;;;;12.70;9.35;;;;;;;;;;6215299;23;20020;-85
2023/09/18 02:28:46;;;;;;;14.40;9.73;;;;;;;;;;6215363;23;20093;-85
2023/09/18 02:31:12;;;;;;;13.07;9.60;;;;;;;;;;6214628;23;20142;-86
2023/09/18 02:33:38;;;;;;;14.20;11.18;;;;;;;;;;6215248;23;20062;-85
2023/09/18 02:36:04;;;;;;;13.68;9.57;;;;;;;;;;6214412;23;20012;-86
2023/09/18 02:38:30;;;;;;;12.27;9.95;;;;;;;;;;6215724;23;20018;-85
2023/09/18 02:40:57;;;;;;;13.57;9.23;;;;;;;;;;6241417;23;20381;-85
2023/09/18 02:43:23;;;;;;;13.20;10.27;;;;;;;;;;6241340;23;20070;-86
2023/09/18 02:45:50;;;;;;;12.18;8.75;;;;;;;;;;6215771;23;20051;-86
2023/09/18 02:48:16;;;;;;;11.27;8.38;;;;;;;;;;6214696;23;20016;-85
2023/09/18 02:50:42;;;;;;;12.82;9.25;;;;;;;;;;6242389;23;20012;-86
2023/09/18 02:53:12;;;;;;;12.80;9.40;;;;;;;;;;6214681;23;20019;-86
2023/09/18 02:55:38;;;;;;;13.40;8.75;;;;;;;;;;6216014;23;20357;-85
2023/09/18 02:58:04;;;;;;;12.00;9.02;;;;;;;;;;6214484;23;20062;-85
2023/09/18 03:00:30;;;;;;;11.23;8.32;;;;;;;;;;6242033;23;20078;-85
2023/09/18 03:02:56;;;;;;;12.93;9.40;;;;;;;;;;6241817;23;20016;-86
2023/09/18 03:05:22;;;;;;;11.63;8.00;;;;;;;;;;6242052;23;20023;-85
2023/09/18 03:07:48;;;;;;;11.45;8.77;;;;;;;;;;6215210;23;20341;-85
2023/09/18 03:10:15;;;;;;;10.70;8.10;;;;;;;;;;6241585;23;20016;-85
2023/09/18 03:12:41;;;;;;;10.23;8.05;;;;;;;;;;6214184;23;20074;-86
2023/09/18 03:15:07;;;;;;;9.95;7.93;;;;;;;;;;6212765;23;20016;-87
2023/09/18 03:17:33;;;;;;;11.18;8.13;;;;;;;;;;6213366;23;20152;-86
2023/09/18 03:19:59;;;;;;;11.88;8.32;;;;;;;;;;6214029;23;20026;-86
2023/09/18 03:22:26;;;;;;;10.23;7.78;;;;;;;;;;6214849;23;20012;-86
2023/09/18 03:24:52;;;;;;;9.98;7.13;;;;;;;;;;6215313;23;20016;-86
2023/09/18 03:27:18;;;;;;;11.32;7.85;;;;;;;;;;6214928;23;20142;-86
2023/09/18 03:29:44;;;;;;;10.07;7.35;;;;;;;;;;6216008;23;20020;-86
2023/09/18 03:32:12;;;;;;;8.98;7.15;;;;;;;;;;6241231;23;20016;-88
2023/09/18 03:34:38;;;;;;;11.10;7.53;;;;;;;;;;6216247;23;20012;-86
2023/09/18 03:37:04;;;;;;;9.25;7.40;;;;;;;;;;6218112;23;20016;-87
2023/09/18 03:39:30;;;;;;;9.05;7.22;;;;;;;;;;6245397;23;20012;-87
2023/09/18 03:41:56;;;;;;;9.85;6.80;;;;;;;;;;6217906;23;20016;-87
2023/09/18 03:44:22;;;;;;;10.35;7.60;;;;;;;;;;6243121;23;20012;-86
2023/09/18 03:46:48;;;;;;;8.07;7.07;;;;;;;;;;6216750;23;20087;-87
2023/09/18 03:49:14;;;;;;;10.60;7.20;;;;;;;;;;6215650;23;20078;-87
2023/09/18 03:51:40;;;;;;;10.07;6.75;;;;;;;;;;6215100;23;20024;-86
2023/09/18 03:54:06;;;;;;;7.93;6.72;;;;;;;;;;6214265;23;20082;-86
2023/09/18 03:56:32;;;;;;;11.48;7.55;;;;;;;;;;6214225;23;20008;-87
2023/09/18 03:59:00;;;;;;;9.63;7.10;;;;;;;;;;6241694;23;20015;-86
2023/09/18 04:01:27;;;;;;;8.75;6.40;;;;;;;;;;6241483;23;20083;-87
2023/09/18 04:03:53;;;;;;;9.20;6.68;;;;;;;;;;6214794;23;20016;-87
2023/09/18 04:06:21;;;;;;;8.70;6.53;;;;;;;;;;6241659;23;20066;-88
2023/09/18 04:08:47;;;;;;;9.45;6.63;;;;;;;;;;6242300;23;20377;-86
2023/09/18 04:11:13;;;;;;;8.27;6.78;;;;;;;;;;6239847;23;20012;-86
2023/09/18 04:13:39;;;;;;;10.30;7.30;;;;;;;;;;6240744;23;20351;-86
2023/09/18 04:16:05;;;;;;;7.75;6.25;;;;;;;;;;6209635;23;20106;-86
2023/09/18 04:18:32;;;;;;;7.80;6.10;;;;;;;;;;6211027;23;20606;-87
2023/09/18 04:20:58;;;;;;;8.98;6.47;;;;;;;;;;6211491;23;20023;-86
2023/09/18 04:23:25;;;;;;;8.20;6.05;;;;;;;;;;6208998;23;20021;-87
2023/09/18 04:25:52;;;;;;;8.20;6.05;;;;;;;;;;6209145;23;20016;-87
2023/09/18 04:28:19;;;;;;;9.18;6.28;;;;;;;;;;6209310;23;20387;-86
2023/09/18 04:30:45;;;;;;;8.45;6.20;;;;;;;;;;6210065;23;20025;-87
2023/09/18 04:33:12;;;;;;;7.82;6.40;;;;;;;;;;6208353;23;20465;-87
2023/09/18 04:35:39;;;;;;;8.40;6.53;;;;;;;;;;6209930;23;20009;-87
2023/09/18 04:38:07;;;;;;;10.27;6.57;;;;;;;;;;6211246;23;20074;-87
2023/09/18 04:40:33;;;;;;;7.78;5.78;;;;;;;;;;6209648;23;20023;-88
2023/09/18 04:42:59;;;;;;;7.57;6.82;;;;;;;;;;6210508;23;20023;-88
2023/09/18 04:45:25;;;;;;;7.80;5.88;;;;;;;;;;6209163;23;20020;-87
2023/09/18 04:47:52;;;;;;;8.35;5.90;;;;;;;;;;6210133;23;20024;-88
2023/09/18 04:50:18;;;;;;;8.95;6.57;;;;;;;;;;6208754;23;20020;-87
2023/09/18 04:52:44;;;;;;;8.48;6.85;;;;;;;;;;6209698;23;20420;-87
2023/09/18 04:55:11;;;;;;;9.70;5.78;;;;;;;;;;6207994;23;20075;-87
2023/09/18 04:57:37;;;;;;;9.40;5.95;;;;;;;;;;6210230;23;20023;-87
2023/09/18 05:00:07;;;;;;;8.27;5.93;;;;;;;;;;6209752;23;20012;-86
2023/09/18 05:02:34;;;;;;;6.50;5.10;;;;;;;;;;6210067;23;20024;-86
2023/09/18 05:05:00;;;;;;;8.00;5.85;;;;;;;;;;6211162;23;20135;-87
2023/09/18 05:07:26;;;;;;;6.18;5.10;;;;;;;;;;6210722;23;20012;-87
2023/09/18 05:09:52;;;;;;;8.18;5.85;;;;;;;;;;6209164;23;20023;-87
2023/09/18 05:12:18;;;;;;;8.27;5.82;;;;;;;;;;6209559;23;20071;-86
2023/09/18 05:14:44;;;;;;;7.38;5.50;;;;;;;;;;6211608;23;20013;-86
2023/09/18 05:17:12;;;;;;;9.40;6.18;;;;;;;;;;6235811;23;20050;-88
2023/09/18 05:19:38;;;;;;;9.45;6.00;;;;;;;;;;6241769;23;20012;-86
2023/09/18 05:22:04;;;;;;;8.40;6.05;;;;;;;;;;6240128;23;20086;-86
2023/09/18 05:24:30;;;;;;;12.20;7.75;;;;;;;;;;6239564;23;20043;-87
2023/09/18 05:26:56;;;;;;;8.05;5.50;;;;;;;;;;6240319;23;20040;-85
2023/09/18 05:29:22;;;;;;;8.07;6.10;;;;;;;;;;6239651;23;20012;-85
2023/09/18 05:31:48;;;;;;;9.80;5.93;;;;;;;;;;6243264;23;20008;-86
2023/09/18 05:34:14;;;;;;;8.13;5.93;;;;;;;;;;6244342;23;20043;-85
2023/09/18 05:36:40;;;;;;;7.80;5.63;;;;;;;;;;6241666;23;20074;-86
2023/09/18 05:39:12;;;;;;;7.60;5.80;;;;;;;;;;6243105;23;20085;-88
2023/09/18 05:41:38;;;;;;;8.52;5.90;;;;;;;;;;6243194;23;20015;-87
2023/09/18 05:44:04;;;;;;;8.25;6.03;;;;;;;;;;6242053;23;20082;-85
2023/09/18 05:46:31;;;;;;;9.57;5.53;;;;;;;;;;6243400;23;20410;-85
2023/09/18 05:48:58;;;;;;;7.05;6.25;;;;;;;;;;6242617;23;20025;-84
2023/09/18 05:51:24;;;;;;;8.23;5.88;;;;;;;;;;6215566;23;20012;-86
2023/09/18 05:53:50;;;;;;;9.85;5.90;;;;;;;;;;6242781;23;20333;-85
2023/09/18 05:56:17;;;;;;;7.55;5.95;;;;;;;;;;6242417;23;20008;-86
2023/09/18 05:58:43;;;;;;;7.55;5.53;;;;;;;;;;6242269;23;20012;-85
2023/09/18 06:01:09;;;;;;;9.90;6.05;;;;;;;;;;6241490;23;20051;-85
2023/09/18 06:03:35;;;;;;;10.23;5.80;;;;;;;;;;6216228;23;20027;-87
2023/09/18 06:06:05;;;;;;;8.80;6.10;;;;;;;;;;6241997;23;20024;-87
2023/09/18 06:08:31;;;;;;;7.70;5.65;;;;;;;;;;6242678;23;20014;-86
2023/09/18 06:10:58;;;;;;;7.95;5.60;;;;;;;;;;6241150;23;20064;-86
2023/09/18 06:13:28;;;;;;;7.40;6.10;;;;;;;;;;6216056;23;20096;-88
2023/09/18 06:15:54;;;;;;;6.43;5.65;;;;;;;;;;6242044;22;20020;-87
2023/09/18 06:18:21;;;;;;;8.93;5.55;;;;;;;;;;6245196;23;20350;-86
2023/09/18 06:20:47;;;;;;;7.75;5.75;;;;;;;;;;6243491;23;20319;-86
2023/09/18 06:23:13;;;;;;;9.15;6.22;;;;;;;;;;6214295;23;20027;-87
2023/09/18 06:25:42;;;;;;;7.30;5.32;;;;;;;;;;6216487;23;20454;-87
2023/09/18 06:28:08;;;;;;;7.55;5.85;;;;;;;;;;6241370;23;20093;-87
2023/09/18 06:30:36;;;;;;;7.80;5.47;;;;;;;;;;6242028;23;20457;-91
2023/09/18 06:33:03;;;;;;;8.20;5.25;;;;;;;;;;6241828;23;20353;-88
2023/09/18 06:35:30;;;;;;;7.82;5.28;;;;;;;;;;6214432;23;20076;-87
2023/09/18 06:37:58;;;;;;;7.22;5.68;;;;;;;;;;6241035;23;20046;-89
2023/09/18 06:40:25;;;;;;;8.15;6.10;;;;;;;;;;6241941;23;20024;-86
2023/09/18 06:42:52;;;;;;;8.32;5.90;;;;;;;;;;6214689;23;20023;-87
2023/09/18 06:45:18;;;;;;;7.57;5.88;;;;;;;;;;6241209;23;20023;-87
2023/09/18 06:47:44;;;;;;;10.95;6.60;;;;;;;;;;6240931;23;20018;-82
2023/09/18 06:50:12;;;;;;;11.63;7.38;;;;;;;;;;6213780;23;20062;-83
2023/09/18 06:52:37;;;;;;;10.93;6.95;;;;;;;;;;6214121;23;20016;-86
2023/09/18 06:55:05;;;;;;;11.50;7.75;;;;;;;;;;6213216;23;20050;-86
2023/09/18 06:57:31;;;;;;;9.75;6.60;;;;;;;;;;6215221;23;20016;-85
2023/09/18 06:59:57;;;;;;;9.70;6.68;;;;;;;;;;6241450;23;20012;-86
2023/09/18 07:02:23;;;;;;;15.98;8.75;;;;;;;;;;6214205;23;20016;-87
2023/09/18 07:04:49;;;;;;;12.82;6.72;;;;;;;;;;6224135;23;20026;-96
2023/09/18 07:07:15;;;;;;;13.07;7.65;;;;;;;;;;6258010;23;20004;-87
2023/09/18 07:09:42;;;;;;;10.20;7.53;;;;;;;;;;6262235;23;20034;-94
2023/09/18 07:12:09;;;;;;;8.30;6.78;;;;;;;;;;6243302;23;20011;-94
2023/09/18 07:14:35;;;;;;;8.10;5.53;;;;;;;;;;6244630;23;20019;-96
2023/09/18 07:17:02;;;;;;;6.88;5.13;;;;;;;;;;6222969;23;20066;-95
2023/09/18 07:19:28;;;;;;;6.57;4.95;;;;;;;;;;6214370;23;20532;-95
2023/09/18 07:21:54;;;;;;;7.50;5.25;;;;;;;;;;6217919;23;20017;-92
2023/09/18 07:24:20;;;;;;;5.65;4.55;;;;;;;;;;6218982;23;20061;-94
2023/09/18 07:26:47;;;;;;;5.15;4.40;;;;;;;;;;6217594;23;20019;-94
2023/09/18 07:29:14;;;;;;;7.43;4.97;;;;;;;;;;6217494;23;20040;-94
2023/09/18 07:31:40;;;;;;;7.03;5.00;;;;;;;;;;6219404;23;20048;-94
2023/09/18 07:34:06;;;;;;;6.28;4.82;;;;;;;;;;6216454;23;20039;-90
2023/09/18 07:36:32;;;;;;;7.00;4.68;;;;;;;;;;6215649;23;20040;-93
2023/09/18 07:38:58;;;;;;;5.63;4.75;;;;;;;;;;6214475;23;20136;-94
2023/09/18 07:41:25;;;;;;;6.40;4.57;;;;;;;;;;6216579;23;20012;-94
2023/09/18 07:43:51;;;;;;;8.20;5.10;;;;;;;;;;6237598;23;20021;-91
2023/09/18 07:46:17;;;;;;;6.47;5.05;;;;;;;;;;6213549;23;20039;-90
2023/09/18 07:48:43;;;;;;;6.32;4.85;;;;;;;;;;6212979;23;20043;-93
2023/09/18 07:51:12;;;;;;;7.13;5.28;;;;;;;;;;6211052;23;20024;-93
2023/09/18 07:53:38;;;;;;;8.38;5.30;;;;;;;;;;6214436;23;20090;-89
2023/09/18 07:56:04;;;;;;;7.32;4.28;;;;;;;;;;6212627;23;20108;-93
2023/09/18 07:58:33;;;;;;;5.80;5.18;;;;;;;;;;6209711;23;20039;-85
2023/09/18 08:00:59;;;;;;;6.82;5.00;;;;;;;;;;6209282;23;20484;-85
2023/09/18 08:03:26;;;;;;;7.53;5.10;;;;;;;;;;6207801;23;20024;-85
2023/09/18 08:05:52;;;;;;;7.30;5.47;;;;;;;;;;6215299;23;20021;-88
2023/09/18 08:08:20;;;;;;;7.13;4.95;;;;;;;;;;6225087;23;20079;-91
2023/09/18 08:10:46;;;;;;;7.78;5.13;;;;;;;;;;6230509;23;20031;-85
2023/09/18 08:13:13;;;;;;;6.80;5.53;;;;;;;;;;6229505;23;20001;-90
2023/09/18 08:15:39;;;;;;;8.23;6.10;;;;;;;;;;6239418;23;20335;-90
2023/09/18 08:18:06;;;;;;;7.78;5.53;;;;;;;;;;6247853;23;20023;-90
2023/09/18 08:20:33;;;;;;;9.07;6.25;;;;;;;;;;6244636;23;20015;-91
2023/09/18 08:23:03;;;;;;;6.22;5.57;;;;;;;;;;6219499;23;20024;-90
2023/09/18 08:25:29;;;;;;;;;;;;;;;;;;6245605;23;20458;-90
2023/09/18 08:27:55;;;;;;;8.93;5.88;;;;;;;;;;6249374;23;20272;-89
2023/09/18 08:30:21;;;;;;;12.32;6.70;;;;;;;;;;6218503;23;20078;-90
2023/09/18 08:32:47;;;;;;;7.55;5.72;;;;;;;;;;6248294;23;20043;-88
2023/09/18 08:35:13;;;;;;;8.90;6.15;;;;;;;;;;6244503;23;20012;-89
2023/09/18 08:37:42;;;;;;;10.57;7.57;;;;;;;;;;6221295;23;20038;-91
2023/09/18 08:40:13;;;;;;;8.88;7.10;;;;;;;;;;6215622;23;20364;-91
2023/09/18 08:42:40;;;;;;;10.10;6.63;;;;;;;;;;6253315;23;20023;-88
2023/09/18 08:45:09;;;;;;;8.95;6.03;;;;;;;;;;6255091;23;20055;-88
2023/09/18 08:47:36;;;;;;;9.73;7.10;;;;;;;;;;6254530;23;20023;-92
2023/09/18 08:50:02;;;;;;;11.70;6.95;;;;;;;;;;6248023;23;20016;-93
2023/09/18 08:52:28;;;;;;;9.20;6.82;;;;;;;;;;6217172;23;20023;-91
2023/09/18 08:54:56;;;;;;;9.13;6.65;;;;;;;;;;6216181;23;20087;-93
2023/09/18 08:57:22;;;;;;;10.38;7.25;;;;;;;;;;6217129;23;20393;-91
2023/09/18 08:59:48;;;;;;;9.75;7.00;;;;;;;;;;6215655;23;20066;-92
2023/09/18 09:02:14;;;;;;;11.75;6.78;;;;;;;;;;6215447;23;20023;-93
2023/09/18 09:04:41;;;;;;;11.88;7.10;;;;;;;;;;6192147;23;20016;-93
2023/09/18 09:07:07;;;;;;;10.30;7.18;;;;;;;;;;6218023;23;20027;-91
2023/09/18 09:09:33;;;;;;;10.57;7.38;;;;;;;;;;6244121;23;20019;-92
2023/09/18 09:11:59;;;;;;;10.55;7.53;;;;;;;;;;6245772;23;20388;-92
2023/09/18 09:14:28;;;;;;;11.48;7.47;;;;;;;;;;6245384;23;20017;-90
2023/09/18 09:16:55;;;;;;;12.15;7.25;;;;;;;;;;6217773;23;20024;-92
2023/09/18 09:19:31;;;;;;;10.90;7.40;;;;;;;;;;6244368;23;20016;-90
2023/09/18 09:21:57;;;;;;;10.52;7.30;;;;;;;;;;6243580;23;20394;-93
2023/09/18 09:24:44;;;;;;;10.20;7.53;;;;;;;;;;6243294;23;20008;-91
2023/09/18 09:27:11;;;;;;;11.38;7.55;;;;;;;;;;6244845;23;20092;-91
2023/09/18 09:29:37;;;;;;;13.52;7.35;;;;;;;;;;6247022;23;20081;-92
2023/09/18 09:32:16;;;;;;;12.18;8.48;;;;;;;;;;6243431;23;20050;-92
2023/09/18 09:34:43;;;;;;;11.02;7.75;;;;;;;;;;6244969;23;20066;-91
2023/09/18 09:37:09;;;;;;;12.77;8.10;;;;;;;;;;6215875;23;20067;-92
2023/09/18 09:39:35;;;;;;;11.38;7.95;;;;;;;;;;6243453;23;20019;-91
2023/09/18 09:42:03;;;;;;;12.95;9.00;;;;;;;;;;6217227;23;20020;-91
2023/09/18 09:44:30;;;;;;;11.48;8.40;;;;;;;;;;6244195;23;20087;-91
2023/09/18 09:46:56;;;;;;;13.68;8.13;;;;;;;;;;6244802;23;20070;-91
2023/09/18 09:49:24;;;;;;;13.70;8.35;;;;;;;;;;6244157;23;20460;-88
2023/09/18 09:51:51;;;;;;;11.70;9.35;;;;;;;;;;6217425;23;20060;-91
2023/09/18 09:54:34;;;;;;;10.52;8.00;;;;;;;;;;6217851;23;20094;-91
2023/09/18 09:57:02;;;;;;;11.45;7.97;;;;;;;;;;6217909;23;20008;-91
2023/09/18 09:59:29;;;;;;;11.32;8.48;;;;;;;;;;6217346;23;20024;-92
2023/09/18 10:01:56;;;;;;;10.75;9.10;;;;;;;;;;6191533;23;20027;-91
2023/09/18 10:04:28;;;;;;;12.18;9.45;;;;;;;;;;6216374;23;20016;-86
2023/09/18 10:06:59;;;;;;;10.18;7.70;;;;;;;;;;6189449;23;20012;-86
2023/09/18 10:09:28;;;;;;;9.68;7.32;;;;;;;;;;6214254;23;20052;-83
2023/09/18 10:11:58;;;;;;;12.50;7.55;;;;;;;;;;6213548;23;20020;-83
2023/09/18 10:14:35;;;;;;;11.90;7.47;;;;;;;;;;6214607;23;20350;-86
2023/09/18 10:17:10;;;;;;;10.68;7.85;;;;;;;;;;6213262;23;20051;-83
2023/09/18 10:19:42;;;;;;;9.15;7.70;;;;;;;;;;6216367;23;20023;-87
2023/09/18 10:22:12;;;;;;;9.95;7.80;;;;;;;;;;6215136;23;20050;-87
2023/09/18 10:24:41;;;;;;;9.77;6.80;;;;;;;;;;6243976;23;20054;-86
2023/09/18 10:27:09;;;;;;;7.82;7.03;;;;;;;;;;6241109;23;20016;-84
2023/09/18 10:29:36;;;;;;;8.75;6.90;;;;;;;;;;6242848;23;20091;-88
2023/09/18 10:32:05;;;;;;;8.18;6.13;;;;;;;;;;6240911;23;20330;-85
2023/09/18 10:34:33;;;;;;;7.47;6.20;;;;;;;;;;6242254;23;20020;-85
2023/09/18 10:37:00;;;;;;;6.85;5.80;;;;;;;;;;6214057;23;20012;-87
2023/09/18 10:39:27;;;;;;;6.45;5.85;;;;;;;;;;6241771;23;20062;-85
2023/09/18 10:41:57;;;;;;;11.05;6.40;;;;;;;;;;6241665;23;20037;-87
2023/09/18 10:44:23;;;;;;;8.10;6.30;;;;;;;;;;6243062;23;20016;-88
2023/09/18 10:46:55;;;;;;;7.45;6.40;;;;;;;;;;6241368;23;20137;-85
2023/09/18 10:49:21;;;;;;;7.13;5.22;;;;;;;;;;6215205;23;20078;-87
2023/09/18 10:51:48;;;;;;;6.38;5.55;;;;;;;;;;6243156;23;20017;-85
2023/09/18 10:54:20;;;;;;;6.20;4.60;;;;;;;;;;6240005;23;20028;-88
2023/09/18 10:56:46;;;;;;;7.40;5.35;;;;;;;;;;6239982;23;20012;-86
2023/09/18 10:59:14;;;;;;;6.03;4.97;;;;;;;;;;6238801;23;20333;-89
2023/09/18 11:01:40;;;;;;;5.70;4.53;;;;;;;;;;6214506;23;20039;-86
2023/09/18 11:04:08;;;;;;;5.90;5.25;;;;;;;;;;6242443;23;20019;-87
2023/09/18 11:07:00;;;;;;;5.70;4.22;;;;;;;;;;6242074;23;20435;-86
2023/09/18 11:09:26;;;;;;;4.43;4.03;;;;;;;;;;6188332;23;20016;-85
2023/09/18 11:12:03;;;;;;;5.00;4.10;;;;;;;;;;6214163;23;20311;-88
2023/09/18 11:14:41;;;;;;;5.25;4.75;;;;;;;;;;6241918;23;20354;-87
2023/09/18 11:17:27;;;;;;;5.00;4.53;;;;;;;;;;6240347;22;20030;-89
2023/09/18 11:20:11;;;;;;;5.45;4.03;;;;;;;;;;6214874;23;20019;-88
2023/09/18 11:22:38;;;;;;;4.70;4.20;;;;;;;;;;6215570;23;20048;-84
2023/09/18 11:25:23;;;;;;;5.18;4.30;;;;;;;;;;6240820;23;20012;-87
2023/09/18 11:27:55;;;;;;;4.15;3.75;;;;;;;;;;6241837;23;20016;-86
2023/09/18 11:30:23;;;;;;;4.22;3.65;;;;;;;;;;6214690;23;20392;-86
2023/09/18 11:32:49;;;;;;;5.13;4.38;;;;;;;;;;6213799;23;20500;-86
2023/09/18 11:35:18;;;;;;;3.72;3.40;;;;;;;;;;6241818;23;20390;-87
2023/09/18 11:37:44;;;;;;;3.58;3.28;;;;;;;;;;6213946;23;20012;-85
2023/09/18 11:40:40;;;;;;;4.30;3.70;;;;;;;;;;6238188;23;20334;-85
2023/09/18 11:43:26;;;;;;;5.18;3.90;;;;;;;;;;6241211;23;20020;-87
2023/09/18 11:45:53;;;;;;;3.95;3.53;;;;;;;;;;6214559;23;20015;-86
2023/09/18 11:48:20;;;;;;;3.47;3.17;;;;;;;;;;6241589;23;20096;-87
2023/09/18 11:50:50;;;;;;;4.32;2.85;;;;;;;;;;6242638;23;20012;-87
2023/09/18 11:53:18;;;;;;;4.85;2.95;;;;;;;;;;6240745;23;20020;-87
2023/09/18 11:55:44;;;;;;;3.90;3.30;;;;;;;;;;6214933;23;20018;-90
2023/09/18 11:58:10;;;;;;;3.00;2.60;;;;;;;;;;6241794;23;20055;-90
2023/09/18 12:00:45;;;;;;;3.80;3.10;;;;;;;;;;6242957;23;20012;-88
2023/09/18 12:03:27;;;;;;;3.38;2.67;;;;;;;;;;6213727;23;20071;-87
2023/09/18 12:05:57;;;;;;;2.95;2.60;;;;;;;;;;6216128;23;20022;-91
2023/09/18 12:08:26;;;;;;;4.60;3.20;;;;;;;;;;6241549;23;20252;-89
2023/09/18 12:10:52;;;;;;;5.18;2.92;;;;;;;;;;6243381;23;20365;-92
2023/09/18 12:13:18;;;;;;;5.50;3.25;;;;;;;;;;6246317;23;20039;-93
2023/09/18 12:15:44;;;;;;;4.00;3.30;;;;;;;;;;6245635;23;20346;-94
2023/09/18 12:18:12;;;;;;;4.40;3.75;;;;;;;;;;6261260;23;20015;-96
2023/09/18 12:20:38;;;;;;;4.63;3.42;;;;;;;;;;6262271;23;20070;-95
2023/09/18 12:23:04;;;;;;;3.47;3.17;;;;;;;;;;6258676;23;20015;-94
2023/09/18 12:25:30;;;;;;;4.30;3.90;;;;;;;;;;6253535;23;20023;-95
2023/09/18 12:27:57;;;;;;;4.40;3.15;;;;;;;;;;6220461;23;20012;-94
2023/09/18 12:30:23;;;;;;;3.97;3.28;;;;;;;;;;6244592;23;20022;-94
2023/09/18 12:32:50;;;;;;;5.28;3.40;;;;;;;;;;6241598;23;20346;-87
2023/09/18 12:35:18;;;;;;;3.63;3.33;;;;;;;;;;6186524;23;20091;-89
2023/09/18 12:37:44;;;;;;;4.78;3.88;;;;;;;;;;6239577;23;20008;-92
2023/09/18 12:40:22;;;;;;;5.15;4.00;;;;;;;;;;6214512;23;20023;-93
2023/09/18 12:42:49;;;;;;;5.45;3.60;;;;;;;;;;6217731;23;20016;-96
2023/09/18 12:45:15;;;;;;;4.53;3.38;;;;;;;;;;6215278;23;20020;-94
2023/09/18 12:47:41;;;;;;;5.22;3.88;;;;;;;;;;6244810;23;20023;-95
2023/09/18 12:50:08;;;;;;;4.50;3.28;;;;;;;;;;6218374;23;20078;-94
2023/09/18 12:52:34;;;;;;;4.47;3.70;;;;;;;;;;6214558;23;20087;-90
2023/09/18 12:55:01;;;;;;;4.47;3.55;;;;;;;;;;6214143;23;20020;-95
2023/09/18 12:57:28;;;;;;;4.00;3.60;;;;;;;;;;6241335;23;20012;-91
2023/09/18 12:59:55;;;;;;;4.93;3.88;;;;;;;;;;6240412;23;20364;-91
2023/09/18 13:02:21;;;;;;;4.35;3.95;;;;;;;;;;6240883;23;20061;-92
2023/09/18 13:04:53;;;;;;;4.28;3.88;;;;;;;;;;6240537;23;20023;-92
2023/09/18 13:07:19;;;;;;;4.75;4.25;;;;;;;;;;6216188;23;20127;-87
2023/09/18 13:10:05;;;;;;;4.40;3.88;;;;;;;;;;6243492;23;20016;-89
2023/09/18 13:12:46;;;;;;;4.97;3.50;;;;;;;;;;6242843;23;20027;-91
2023/09/18 13:15:14;;;;;;;4.63;4.22;;;;;;;;;;6239206;22;20375;-85
2023/09/18 13:17:45;;;;;;;5.80;4.50;;;;;;;;;;6240508;23;20383;-84
2023/09/18 13:20:11;;;;;;;;;;;;;;;;;;6239579;23;20051;-88
2023/09/18 13:22:38;;;;;;;4.40;4.00;;;;;;;;;;6238574;23;19993;-87
2023/09/18 13:25:04;;;;;;;3.67;3.38;;;;;;;;;;6239135;23;20016;-86
2023/09/18 13:27:30;;;;;;;4.72;3.58;;;;;;;;;;6238030;23;20020;-85
2023/09/18 13:29:56;;;;;;;6.38;4.25;;;;;;;;;;6237608;23;20027;-86
2023/09/18 13:32:22;;;;;;;4.30;3.35;;;;;;;;;;6211801;23;20016;-85
2023/09/18 13:34:48;;;;;;;4.25;3.85;;;;;;;;;;6210296;23;20102;-86
2023/09/18 13:37:17;;;;;;;4.40;3.67;;;;;;;;;;6211886;23;20016;-85
2023/09/18 13:39:43;;;;;;;5.15;4.35;;;;;;;;;;6211361;23;20066;-88
2023/09/18 13:42:09;;;;;;;4.15;3.75;;;;;;;;;;6210582;23;20119;-86
2023/09/18 13:44:36;;;;;;;4.30;3.90;;;;;;;;;;6211266;23;20020;-85
2023/09/18 13:47:03;;;;;;;3.75;3.45;;;;;;;;;;6239229;23;20023;-85
2023/09/18 13:49:29;;;;;;;5.60;4.03;;;;;;;;;;6240485;23;20032;-86
2023/09/18 13:51:56;;;;;;;4.38;3.42;;;;;;;;;;6243918;23;20342;-85
2023/09/18 13:54:22;;;;;;;4.22;3.80;;;;;;;;;;6246252;23;20036;-85
2023/09/18 13:56:48;;;;;;;3.88;3.30;;;;;;;;;;6218966;23;20016;-85
2023/09/18 13:59:14;;;;;;;5.20;3.60;;;;;;;;;;6215812;23;20045;-86
2023/09/18 14:01:40;;;;;;;3.33;3.03;;;;;;;;;;6216058;23;20095;-85
2023/09/18 14:04:06;;;;;;;5.60;4.35;;;;;;;;;;6216618;23;20465;-86
2023/09/18 14:06:33;;;;;;;4.30;3.90;;;;;;;;;;6215408;23;20111;-86
2023/09/18 14:08:59;;;;;;;4.63;3.50;;;;;;;;;;6215334;23;20105;-85
2023/09/18 14:11:25;;;;;;;4.55;3.63;;;;;;;;;;6214757;23;20044;-84
2023/09/18 14:13:51;;;;;;;4.05;3.63;;;;;;;;;;6212124;23;20116;-85
2023/09/18 14:16:17;;;;;;;5.18;3.25;;;;;;;;;;6214181;23;20020;-87
2023/09/18 14:18:43;;;;;;;3.65;2.78;;;;;;;;;;6216220;23;20019;-86
2023/09/18 14:21:09;;;;;;;4.90;3.67;;;;;;;;;;6215742;23;20016;-85
2023/09/18 14:23:36;;;;;;;4.70;3.15;;;;;;;;;;6215324;23;20023;-87
2023/09/18 14:26:02;;;;;;;3.85;3.13;;;;;;;;;;6244177;23;20039;-87
2023/09/18 14:28:28;;;;;;;3.28;2.92;;;;;;;;;;6242838;23;20289;-89
2023/09/18 14:30:54;;;;;;;3.47;2.72;;;;;;;;;;6216730;23;20334;-91
2023/09/18 14:33:20;;;;;;;3.30;2.13;;;;;;;;;;6219239;23;20441;-88
2023/09/18 14:35:46;;;;;;;3.60;2.55;;;;;;;;;;6193692;23;20014;-91
2023/09/18 14:38:14;;;;;;;2.08;1.88;;;;;;;;;;6217620;23;20082;-92
2023/09/18 14:40:43;;;;;;;3.15;2.35;;;;;;;;;;6244106;23;20016;-93